National Stock Yards, Illinois
Current Conditions -  °F | °C
As of 2:53 AM on Wednesday 22 Oct 2014 (Local Time) from KCPS Reporting Station
Clear Clear  
Wind Chill: 44°   Ceiling: Unl
Heat Index: 46°   Visibility: 10mi
Dew Point: 41°   Wind: 5mph
Humidity: 83%   Direction: 80°E
Pressure: 30.23"   Gusts: NA
Location:  38.66°N, 90.17°W
Report Text: KCPS 220753Z AUTO 08004KT 10SM CLR 08/05 A3023 RMK AO2 SLP235 T00780050
Loading
Personal Weather Stations






























Interactive Weather Map
Tropical Storm Tracking
New forecast layout! Learn more

10-Day Weather Forecast

Advertisements
Track Severe Weather on mobile